Time;durP1;ratioP1;P1;durP2;ratioP2;P2;SDS_P1;SDS_P2;PMS_P1;PMS_P2;Temp;Humidity;BMP_temperature;BMP_pressure;BME280_temperature;BME280_humidity;BME280_pressure;Samples;Min_cycle;Max_cycle;Signal;HPM_P1;HPM_P2
2024/02/02 00:01:46;;;;;;;2.55;1.63;;;4.50;99.90;;;4.67;100.00;102081.75;6185652;23;20210;-64
2024/02/02 00:04:15;;;;;;;1.92;0.85;;;4.60;99.90;;;4.74;100.00;102074.03;6185212;23;20226;-65
2024/02/02 00:06:44;;;;;;;0.90;0.60;;;4.70;99.90;;;4.69;100.00;102071.75;6185257;23;20191;-65
2024/02/02 00:09:19;;;;;;;2.75;1.38;;;4.70;99.90;;;4.77;100.00;102077.28;6185094;23;20813;-65
2024/02/02 00:11:48;;;;;;;1.98;1.55;;;4.70;99.90;;;4.84;100.00;102071.38;6185333;23;20194;-64
2024/02/02 00:14:30;;;;;;;3.05;1.30;;;4.80;99.90;;;4.90;100.00;102065.44;6185357;23;20629;-62
2024/02/02 00:17:00;;;;;;;0.80;0.60;;;4.90;99.90;;;4.95;100.00;102063.19;6185693;23;20180;-65
2024/02/02 00:19:29;;;;;;;3.03;1.08;;;4.90;99.90;;;4.98;100.00;102052.22;6185659;23;20155;-65
2024/02/02 00:21:58;;;;;;;1.30;1.20;;;5.00;99.90;;;5.01;100.00;102062.66;6185292;23;20177;-65
2024/02/02 00:24:27;;;;;;;3.60;3.33;;;5.00;99.90;;;4.97;100.00;102063.94;6185498;23;20207;-66
2024/02/02 00:26:55;;;;;;;2.95;0.80;;;5.00;99.90;;;4.91;100.00;102067.16;6185416;23;20191;-65
2024/02/02 00:29:24;;;;;;;12.85;3.05;;;4.90;99.90;;;4.92;100.00;102060.81;6185565;23;20163;-64
2024/02/02 00:31:53;;;;;;;0.90;0.60;;;4.90;99.90;;;4.85;100.00;102062.31;6185547;23;20156;-64
2024/02/02 00:34:23;;;;;;;0.90;0.60;;;4.90;99.90;;;4.79;100.00;102059.19;6185670;23;20191;-65
2024/02/02 00:36:51;;;;;;;0.90;0.80;;;4.90;99.90;;;4.71;100.00;102050.16;6186028;23;20188;-64
2024/02/02 00:39:20;;;;;;;0.80;0.60;;;4.80;99.90;;;4.62;100.00;102043.78;6188095;23;20241;-64
2024/02/02 00:41:49;;;;;;;3.13;1.55;;;4.70;99.90;;;4.61;100.00;102046.59;6188848;23;20148;-64
2024/02/02 00:44:18;;;;;;;0.80;0.50;;;4.70;99.90;;;4.57;100.00;102037.13;6187100;23;20157;-65
2024/02/02 00:46:47;;;;;;;3.50;1.48;;;4.70;99.90;;;4.58;100.00;102039.66;6188614;23;20167;-66
2024/02/02 00:49:15;;;;;;;1.52;1.42;;;4.70;99.90;;;4.53;100.00;102036.53;6211283;23;20197;-63
2024/02/02 00:51:45;;;;;;;0.90;0.50;;;4.60;99.90;;;4.49;100.00;102028.91;6187677;23;20505;-62
2024/02/02 00:54:14;;;;;;;5.63;1.73;;;4.60;99.90;;;4.49;100.00;102029.75;6187438;23;20237;-66
2024/02/02 00:56:43;;;;;;;2.80;2.60;;;4.50;99.90;;;4.43;100.00;102035.66;6187248;23;20156;-66
2024/02/02 00:59:12;;;;;;;1.20;0.95;;;4.50;99.90;;;4.47;100.00;102012.97;6160859;23;20239;-63
2024/02/02 01:01:41;;;;;;;14.52;1.52;;;4.50;99.90;;;4.48;100.00;102022.69;6187309;23;20157;-65
2024/02/02 01:04:10;;;;;;;0.98;0.68;;;4.50;99.90;;;4.49;100.00;102018.19;6187160;23;20204;-64
2024/02/02 01:06:39;;;;;;;0.85;0.73;;;4.50;99.90;;;4.46;100.00;102023.81;6187438;23;20544;-64
2024/02/02 01:09:10;;;;;;;0.80;0.50;;;4.50;99.90;;;4.48;100.00;102045.97;6160556;23;20205;-64
2024/02/02 01:11:39;;;;;;;0.80;0.50;;;4.50;99.90;;;4.52;100.00;102045.56;6187506;23;20548;-65
2024/02/02 01:14:08;;;;;;;2.20;1.08;;;4.60;99.90;;;4.53;100.00;102052.63;6187058;23;20210;-63
2024/02/02 01:16:37;;;;;;;0.80;0.40;;;4.60;99.90;;;4.51;100.00;102049.22;6187638;23;20174;-64
2024/02/02 01:19:09;;;;;;;0.90;0.70;;;4.50;99.90;;;4.48;100.00;102057.53;6187555;23;20183;-65
2024/02/02 01:21:40;;;;;;;1.30;0.85;;;4.60;99.90;;;4.60;100.00;102067.19;6187498;23;20158;-65
2024/02/02 01:24:10;;;;;;;1.75;1.65;;;4.60;99.90;;;4.60;100.00;102069.84;6187393;23;20226;-65
2024/02/02 01:26:39;;;;;;;1.00;0.90;;;4.60;99.90;;;4.60;100.00;102063.69;6187160;23;20155;-66
2024/02/02 01:29:08;;;;;;;1.58;1.48;;;4.60;99.90;;;4.63;100.00;102069.59;6186851;23;20187;-64
2024/02/02 01:31:37;;;;;;;0.80;0.50;;;4.60;99.90;;;4.62;100.00;102065.22;6187452;23;20152;-63
2024/02/02 01:34:06;;;;;;;0.80;0.60;;;4.60;99.90;;;4.64;100.00;102079.34;6187103;23;20159;-63
2024/02/02 01:36:37;;;;;;;0.80;0.50;;;4.70;99.90;;;4.64;100.00;102065.09;6187431;23;20153;-65
2024/02/02 01:39:10;;;;;;;1.10;1.00;;;4.70;99.90;;;4.68;100.00;102071.88;6186651;23;20193;-64
2024/02/02 01:41:40;;;;;;;1.42;1.13;;;4.70;99.90;;;4.69;100.00;102070.91;6186405;23;20531;-62
2024/02/02 01:44:09;;;;;;;0.90;0.63;;;4.70;99.90;;;4.72;100.00;102058.06;6186502;23;20222;-65
2024/02/02 01:46:38;;;;;;;0.90;0.80;;;4.70;99.90;;;4.72;100.00;102057.22;6186451;23;20589;-65
2024/02/02 01:49:06;;;;;;;1.85;0.95;;;4.70;99.90;;;4.72;100.00;102052.69;6186040;23;20524;-66
2024/02/02 01:51:35;;;;;;;0.80;0.73;;;4.70;99.90;;;4.77;100.00;102054.97;6186258;23;20155;-64
2024/02/02 01:54:04;;;;;;;1.10;0.77;;;4.80;99.90;;;4.73;100.00;102053.56;6186489;23;20155;-64
2024/02/02 01:56:33;;;;;;;0.85;0.60;;;4.70;99.90;;;4.70;100.00;102046.63;6160008;23;20185;-65
2024/02/02 01:59:07;;;;;;;2.35;2.25;;;4.70;99.90;;;4.77;100.00;102061.19;6186104;23;20184;-63
2024/02/02 02:01:37;;;;;;;4.72;1.60;;;4.80;99.90;;;4.82;100.00;102068.81;6186103;23;20159;-65
2024/02/02 02:04:05;;;;;;;1.25;1.15;;;4.80;99.90;;;4.88;100.00;102062.91;6185700;23;20156;-64
2024/02/02 02:06:35;;;;;;;1.90;1.42;;;4.90;99.90;;;4.86;100.00;102050.63;6186255;23;20215;-64
2024/02/02 02:09:04;;;;;;;2.08;1.80;;;4.80;99.90;;;4.88;100.00;102059.38;6185877;23;20186;-63
2024/02/02 02:11:35;;;;;;;0.90;0.70;;;4.80;99.90;;;4.85;100.00;102060.50;6186205;23;20161;-63
2024/02/02 02:14:06;;;;;;;0.80;0.60;;;4.80;99.90;;;4.81;100.00;102062.59;6185985;23;20596;-65
2024/02/02 02:16:34;;;;;;;7.93;1.50;;;4.80;99.90;;;4.81;100.00;102051.88;6185832;23;20510;-62
2024/02/02 02:19:04;;;;;;;0.80;0.50;;;4.90;99.90;;;4.90;100.00;102055.56;6186012;23;20196;-63
2024/02/02 02:21:34;;;;;;;0.90;0.70;;;4.90;99.90;;;4.88;100.00;102054.03;6185938;23;20624;-66
2024/02/02 02:24:03;;;;;;;0.90;0.65;;;4.90;99.90;;;4.86;100.00;102047.94;6186139;23;20166;-63
2024/02/02 02:26:33;;;;;;;1.67;1.58;;;4.90;99.90;;;4.82;100.00;102056.25;6186044;23;20160;-64
2024/02/02 02:29:01;;;;;;;0.80;0.50;;;4.90;99.90;;;4.89;100.00;102053.03;6185644;23;20184;-63
2024/02/02 02:31:30;;;;;;;1.15;0.90;;;4.90;99.90;;;4.96;100.00;102055.03;6186235;23;20168;-63
2024/02/02 02:33:59;;;;;;;1.10;1.00;;;4.90;99.90;;;4.93;100.00;102057.16;6185909;23;20159;-63
2024/02/02 02:36:28;;;;;;;1.45;0.93;;;4.90;99.90;;;4.99;100.00;102061.94;6185538;23;20191;-65
2024/02/02 02:38:58;;;;;;;3.60;1.77;;;4.90;99.90;;;4.95;100.00;102050.63;6185657;23;20568;-65
2024/02/02 02:41:27;;;;;;;4.72;0.98;;;5.00;99.90;;;4.94;100.00;102048.94;6186170;23;20494;-65
2024/02/02 02:43:56;;;;;;;3.08;1.75;;;4.90;99.90;;;4.97;100.00;102045.16;6185905;23;20171;-65
2024/02/02 02:46:25;;;;;;;0.80;0.55;;;4.90;99.90;;;4.95;100.00;102041.75;6185646;23;20271;-65
2024/02/02 02:48:53;;;;;;;4.00;1.75;;;5.00;99.90;;;4.99;100.00;102043.16;6186206;23;20182;-64
2024/02/02 02:51:22;;;;;;;0.80;0.60;;;5.00;99.90;;;5.03;100.00;102047.28;6186095;23;20675;-62
2024/02/02 02:53:51;;;;;;;1.75;1.00;;;5.00;99.90;;;4.97;100.00;102045.16;6184143;23;20175;-61
2024/02/02 02:56:21;;;;;;;3.17;1.95;;;5.00;99.90;;;5.04;100.00;102051.63;6185865;23;20210;-63
2024/02/02 02:58:49;;;;;;;1.35;0.88;;;5.00;99.90;;;5.12;100.00;102043.78;6186917;23;20187;-64
2024/02/02 03:01:18;;;;;;;0.90;0.70;;;5.10;99.90;;;5.09;100.00;102041.34;6188854;23;20150;-63
2024/02/02 03:03:49;;;;;;;2.50;2.33;;;5.10;99.90;;;5.12;100.00;102038.41;6189523;23;20213;-65
2024/02/02 03:06:17;;;;;;;0.80;0.60;;;5.10;99.90;;;5.13;100.00;102034.75;6187077;23;20431;-65
2024/02/02 03:08:46;;;;;;;0.80;0.50;;;5.10;99.90;;;5.06;100.00;102039.81;6186449;23;20270;-64
2024/02/02 03:11:15;;;;;;;1.33;0.82;;;5.00;99.90;;;5.07;100.00;102041.50;6186200;23;20172;-64
2024/02/02 03:13:45;;;;;;;1.52;0.80;;;5.10;99.90;;;5.17;100.00;102042.38;6185649;23;20223;-65
2024/02/02 03:16:14;;;;;;;2.88;2.63;;;5.10;99.90;;;5.19;100.00;102047.56;6185180;23;20176;-65
2024/02/02 03:18:43;;;;;;;1.05;0.73;;;5.10;99.90;;;5.13;100.00;102048.16;6185415;23;20194;-64
2024/02/02 03:21:13;;;;;;;1.02;0.93;;;5.10;99.90;;;5.03;100.00;102047.28;6185534;23;20608;-65
2024/02/02 03:23:42;;;;;;;1.98;1.10;;;5.10;99.90;;;5.11;100.00;102058.16;6185666;23;20153;-65
2024/02/02 03:26:10;;;;;;;7.30;1.45;;;5.10;99.90;;;5.01;100.00;102052.78;6185533;23;20194;-65
2024/02/02 03:28:39;;;;;;;1.10;1.00;;;5.10;99.90;;;4.99;100.00;102054.75;6185512;23;20188;-64
2024/02/02 03:31:09;;;;;;;1.27;1.17;;;5.00;99.90;;;5.06;100.00;102044.31;6185591;23;20149;-65
2024/02/02 03:33:37;;;;;;;1.55;0.82;;;5.10;99.90;;;5.00;100.00;102055.59;6185880;23;20201;-65
2024/02/02 03:36:06;;;;;;;6.10;1.88;;;5.00;99.90;;;5.04;100.00;102046.28;6185281;23;20187;-65
2024/02/02 03:38:35;;;;;;;1.02;0.82;;;5.10;99.90;;;4.97;100.00;102037.09;6185763;23;20195;-56
2024/02/02 03:41:04;;;;;;;0.80;0.60;;;5.00;99.90;;;4.97;100.00;102035.28;6185549;23;20194;-63
2024/02/02 03:43:32;;;;;;;1.80;1.25;;;5.00;99.90;;;4.92;100.00;102031.28;6185597;23;20506;-64
2024/02/02 03:46:01;;;;;;;4.93;0.95;;;4.90;99.90;;;4.94;100.00;102029.34;6186036;23;20161;-63
2024/02/02 03:48:31;;;;;;;3.55;1.83;;;4.90;99.90;;;4.98;100.00;102025.38;6186491;23;20222;-63
2024/02/02 03:51:00;;;;;;;2.97;1.08;;;4.90;99.90;;;4.97;100.00;102029.06;6186718;23;20164;-65
2024/02/02 03:53:29;;;;;;;1.30;1.20;;;4.90;99.90;;;4.89;100.00;102026.22;6186662;23;20178;-64
2024/02/02 03:55:58;;;;;;;3.60;1.13;;;4.90;99.90;;;4.88;100.00;102032.56;6160166;23;20661;-65
2024/02/02 03:58:26;;;;;;;2.40;2.20;;;4.90;99.90;;;4.81;100.00;102042.97;6186811;23;20191;-62
2024/02/02 04:00:56;;;;;;;3.97;1.52;;;4.80;99.90;;;4.78;100.00;102043.28;6186309;23;20613;-65
2024/02/02 04:03:25;;;;;;;1.92;1.20;;;4.80;99.90;;;4.77;100.00;102034.38;6186264;23;20164;-65
2024/02/02 04:05:55;;;;;;;5.65;1.58;;;4.80;99.90;;;4.76;100.00;102046.06;6185581;23;20239;-63
2024/02/02 04:08:24;;;;;;;1.70;1.55;;;4.80;99.90;;;4.80;100.00;102050.19;6186499;23;20210;-65
2024/02/02 04:10:55;;;;;;;1.55;0.70;;;4.80;99.90;;;4.81;100.00;102046.50;6186572;23;20157;-64
2024/02/02 04:13:23;;;;;;;0.80;0.50;;;4.90;99.90;;;4.81;100.00;102057.25;6188286;23;20241;-65
2024/02/02 04:15:52;;;;;;;3.17;2.15;;;4.80;99.90;;;4.82;100.00;102056.25;6187358;23;20228;-64
2024/02/02 04:18:21;;;;;;;1.75;0.73;;;4.80;99.90;;;4.81;100.00;102051.03;6187299;23;20187;-65
2024/02/02 04:20:51;;;;;;;0.90;0.80;;;4.80;99.90;;;4.88;100.00;102062.91;6188970;23;20187;-64
2024/02/02 04:23:21;;;;;;;1.33;1.08;;;4.90;99.90;;;4.93;100.00;102057.16;6163145;23;20462;-64
2024/02/02 04:25:50;;;;;;;1.83;1.05;;;4.90;99.90;;;4.93;100.00;102054.47;6189610;23;20183;-64
2024/02/02 04:28:18;;;;;;;1.63;1.08;;;4.90;99.90;;;4.85;100.00;102052.44;6188332;23;20187;-65
2024/02/02 04:30:48;;;;;;;4.28;2.95;;;4.80;99.90;;;4.87;100.00;102044.28;6187467;23;20155;-64
2024/02/02 04:33:17;;;;;;;2.53;1.45;;;4.90;99.90;;;4.86;100.00;102031.84;6187053;23;20223;-65
2024/02/02 04:35:45;;;;;;;3.90;3.03;;;4.90;99.90;;;4.84;100.00;102039.19;6187149;23;20166;-64
2024/02/02 04:38:17;;;;;;;2.47;1.08;;;4.90;99.90;;;4.80;100.00;102039.44;6186836;23;20188;-65
2024/02/02 04:40:47;;;;;;;2.00;1.80;;;4.80;99.90;;;4.93;100.00;102038.38;6186917;23;20623;-66
2024/02/02 04:43:16;;;;;;;1.10;0.70;;;4.90;99.90;;;4.89;100.00;102035.09;6160453;23;20219;-65
2024/02/02 04:45:44;;;;;;;2.03;1.08;;;4.90;99.90;;;4.85;100.00;102038.19;6186981;23;20168;-65
2024/02/02 04:48:14;;;;;;;1.23;0.90;;;4.90;99.90;;;4.84;100.00;102031.16;6186908;23;20522;-64
2024/02/02 04:50:42;;;;;;;3.38;1.10;;;4.80;99.90;;;4.88;100.00;102036.09;6187766;23;20158;-63
2024/02/02 04:53:13;;;;;;;0.82;0.60;;;4.90;99.90;;;4.88;100.00;102035.25;6187613;23;20175;-64
2024/02/02 04:55:41;;;;;;;1.80;1.05;;;4.90;99.90;;;4.90;100.00;102041.31;6187901;23;20488;-64
2024/02/02 04:58:12;;;;;;;2.10;1.50;;;4.90;99.90;;;4.87;100.00;102039.75;6186930;23;20254;-62
2024/02/02 05:00:40;;;;;;;2.03;1.55;;;4.80;99.90;;;4.97;100.00;102034.41;6186970;23;20210;-65
2024/02/02 05:03:09;;;;;;;11.07;1.70;;;4.90;99.90;;;4.95;100.00;102031.00;6160943;23;20507;-63
2024/02/02 05:05:38;;;;;;;1.30;1.20;;;4.90;99.90;;;4.91;100.00;102024.22;6187392;23;20202;-65
2024/02/02 05:08:08;;;;;;;2.10;1.38;;;4.90;99.90;;;4.91;100.00;102017.03;6160556;23;20183;-63
2024/02/02 05:10:37;;;;;;;1.45;0.93;;;4.90;99.90;;;4.91;100.00;102013.50;6187465;23;20175;-65
2024/02/02 05:13:05;;;;;;;1.55;1.45;;;4.90;99.90;;;4.89;100.00;102005.59;6187067;23;20152;-64
2024/02/02 05:15:36;;;;;;;1.50;1.40;;;4.90;99.90;;;4.86;100.00;102005.03;6187293;23;20156;-64
2024/02/02 05:18:06;;;;;;;0.80;0.65;;;4.80;99.90;;;4.78;100.00;101993.16;6187453;23;20228;-63
2024/02/02 05:20:35;;;;;;;2.83;1.45;;;4.80;99.90;;;4.78;100.00;101986.94;6187915;23;20672;-64
2024/02/02 05:23:04;;;;;;;1.67;1.58;;;4.80;99.90;;;4.87;100.00;101979.91;6189107;23;20164;-64
2024/02/02 05:25:32;;;;;;;2.10;1.98;;;4.90;99.90;;;4.85;100.00;101981.84;6189107;23;20194;-63
2024/02/02 05:28:01;;;;;;;1.25;1.15;;;4.90;99.90;;;4.91;100.00;101992.03;6187981;23;20637;-64
2024/02/02 05:30:30;;;;;;;1.40;1.20;;;4.90;99.90;;;4.96;100.00;101981.75;6187335;23;20192;-63
2024/02/02 05:33:00;;;;;;;1.23;1.10;;;4.90;99.90;;;4.94;100.00;101983.75;6187562;23;20191;-64
2024/02/02 05:35:29;;;;;;;1.73;1.20;;;4.90;99.90;;;4.95;100.00;101975.53;6187934;23;20152;-60
2024/02/02 05:37:57;;;;;;;2.00;1.63;;;4.90;99.90;;;4.96;100.00;101973.69;6187395;23;20192;-62
2024/02/02 05:40:26;;;;;;;6.47;2.55;;;4.90;99.90;;;5.05;100.00;101978.22;6187167;23;20243;-64
2024/02/02 05:43:00;;;;;;;0.80;0.60;;;5.00;99.90;;;5.16;100.00;101986.16;6187073;23;20177;-64
2024/02/02 05:45:31;;;;;;;4.22;1.60;;;5.10;99.90;;;5.13;100.00;101973.03;6186253;23;20179;-64
2024/02/02 05:48:01;;;;;;;1.58;1.48;;;5.10;99.90;;;5.13;100.00;101964.97;6186434;23;20644;-65
2024/02/02 05:50:30;;;;;;;0.98;0.80;;;5.10;99.90;;;4.98;100.00;101964.53;6186665;23;20156;-63
2024/02/02 05:52:58;;;;;;;1.50;1.05;;;5.00;99.90;;;4.97;100.00;101965.53;6186119;23;20207;-62
2024/02/02 05:55:27;;;;;;;1.42;0.95;;;5.00;99.90;;;5.04;100.00;101972.00;6186282;23;20251;-64
2024/02/02 05:57:57;;;;;;;1.33;0.85;;;5.00;99.90;;;5.06;100.00;101979.91;6185712;23;20641;-64
2024/02/02 06:00:25;;;;;;;7.10;2.03;;;5.00;99.90;;;5.05;100.00;101967.47;6185691;23;20165;-64
2024/02/02 06:02:54;;;;;;;2.72;1.60;;;5.10;99.90;;;5.15;100.00;101965.66;6185859;23;20153;-62
2024/02/02 06:05:24;;;;;;;1.88;1.42;;;5.10;99.90;;;5.17;100.00;101971.75;6185135;23;20168;-64
2024/02/02 06:07:53;;;;;;;3.65;1.77;;;5.10;99.90;;;5.28;100.00;101976.94;6185728;23;20633;-64
2024/02/02 06:10:21;;;;;;;1.60;1.42;;;5.20;99.90;;;5.33;100.00;101971.16;6185348;23;20169;-63
2024/02/02 06:12:50;;;;;;;1.15;1.05;;;5.30;99.90;;;5.18;100.00;101976.13;6185764;23;20169;-64
2024/02/02 06:15:19;;;;;;;0.95;0.82;;;5.20;99.90;;;5.12;100.00;101974.84;6185533;23;20210;-63
2024/02/02 06:17:48;;;;;;;0.90;0.77;;;5.10;99.90;;;5.32;100.00;101980.22;6159376;23;20200;-62
2024/02/02 06:20:21;;;;;;;0.95;0.82;;;5.20;99.90;;;5.34;100.00;101972.84;6185974;23;20230;-63
2024/02/02 06:22:51;;;;;;;1.55;0.80;;;5.30;99.90;;;5.25;100.00;101971.88;6185680;23;20621;-64
2024/02/02 06:25:19;;;;;;;1.05;0.95;;;5.20;99.90;;;5.30;100.00;101976.81;6185657;23;20172;-65
2024/02/02 06:27:48;;;;;;;3.60;2.55;;;5.30;99.90;;;5.38;100.00;101985.84;6185496;23;20193;-65
2024/02/02 06:30:17;;;;;;;0.80;0.50;;;5.30;99.90;;;5.37;100.00;101983.31;6185825;23;20160;-61
2024/02/02 06:32:49;;;;;;;2.40;1.35;;;5.30;99.90;;;5.44;100.00;101979.91;6185649;23;20168;-64
2024/02/02 06:35:17;;;;;;;0.80;0.50;;;5.40;99.90;;;5.47;100.00;101987.69;6185190;23;20264;-65
2024/02/02 06:37:46;;;;;;;5.32;1.38;;;5.40;99.90;;;5.52;100.00;101981.88;6185062;23;20227;-65
2024/02/02 06:40:16;;;;;;;1.45;1.00;;;5.40;99.90;;;5.45;100.00;101984.31;6185207;23;20240;-64
2024/02/02 06:42:44;;;;;;;0.80;0.50;;;5.50;99.90;;;5.40;100.00;101978.50;6184924;23;20241;-64
2024/02/02 06:45:13;;;;;;;8.25;4.38;;;5.40;99.90;;;5.41;100.00;101971.31;6158715;23;20161;-60
2024/02/02 06:47:42;;;;;;;1.10;0.95;;;5.40;99.90;;;5.55;100.00;101971.72;6185350;23;20219;-64
2024/02/02 06:50:11;;;;;;;25.33;1.65;;;5.50;99.90;;;5.50;100.00;101975.81;6185468;23;20259;-61
2024/02/02 06:52:40;;;;;;;1.90;1.25;;;5.50;99.90;;;5.41;100.00;101977.53;6185164;23;20695;-63
2024/02/02 06:55:09;;;;;;;0.80;0.60;;;5.40;99.90;;;5.48;100.00;101980.47;6185149;23;20169;-64
2024/02/02 06:57:42;;;;;;;11.90;2.67;;;5.40;99.90;;;5.53;100.00;101967.47;6185104;23;20198;-62
2024/02/02 07:00:15;;;;;;;0.90;0.73;;;5.50;99.90;;;5.46;100.00;101955.63;6185607;23;20647;-61
2024/02/02 07:02:45;;;;;;;2.45;1.20;;;5.50;99.90;;;5.50;100.00;101951.66;6184857;23;20184;-63
2024/02/02 07:05:15;;;;;;;1.50;1.15;;;5.50;99.90;;;5.53;100.00;101937.94;6185037;23;20157;-64
2024/02/02 07:07:44;;;;;;;1.27;0.90;;;5.50;99.90;;;5.52;100.00;101934.41;6185055;23;20273;-64
2024/02/02 07:10:18;;;;;;;1.05;0.85;;;5.50;99.90;;;5.48;100.00;101933.00;6184970;23;20203;-63
2024/02/02 07:12:57;;;;;;;1.45;1.35;;;5.50;99.90;;;5.41;100.00;101931.91;6184955;23;20224;-66
2024/02/02 07:15:31;;;;;;;2.35;2.15;;;5.50;99.90;;;5.47;100.00;101935.84;6184893;23;20163;-62
2024/02/02 07:18:00;;;;;;;7.30;3.70;;;5.50;99.90;;;5.35;100.00;101935.16;6185062;23;20580;-65
2024/02/02 07:21:04;;;;;;;4.00;3.45;;;5.40;99.90;;;5.38;100.00;101926.78;6185248;23;20158;-64
2024/02/02 07:23:40;;;;;;;6.68;3.25;;;5.40;99.90;;;5.39;100.00;101925.81;6184780;23;20499;-63
2024/02/02 07:26:26;;;;;;;1.92;1.30;;;5.40;99.90;;;5.50;100.00;101931.03;6185124;23;20153;-64
2024/02/02 07:28:57;;;;;;;5.60;1.88;;;5.40;99.90;;;5.45;100.00;101917.19;6158286;23;20187;-58
2024/02/02 07:31:48;;;;;;;1.10;0.98;;;5.50;99.90;;;5.39;100.00;101906.16;6185443;23;20218;-63
2024/02/02 07:34:42;;;;;;;1.90;1.77;;;5.40;99.90;;;5.62;100.00;101903.00;6155308;23;20264;-64
2024/02/02 07:37:37;;;;;;;1.35;1.10;;;5.60;99.90;;;5.56;100.00;101908.97;6184781;23;20251;-64
2024/02/02 07:41:01;;;;;;;1.75;0.98;;;5.50;99.90;;;5.72;100.00;101902.97;6184945;23;20156;-64
2024/02/02 07:43:32;;;;;;;0.93;0.82;;;5.60;99.90;;;5.87;99.85;101895.31;6184956;23;20243;-64
2024/02/02 07:46:06;;;;;;;3.17;2.00;;;5.80;99.90;;;6.02;98.11;101899.22;6184849;23;20231;-64
2024/02/02 07:48:40;;;;;;;1.88;1.63;;;5.90;99.90;;;6.01;97.51;101893.00;6185326;23;20270;-65
2024/02/02 07:51:09;;;;;;;1.40;1.20;;;5.90;99.90;;;5.96;97.76;101891.75;6185257;23;20169;-63
2024/02/02 07:53:40;;;;;;;1.35;1.00;;;5.90;99.90;;;5.94;97.44;101894.59;6185991;23;20511;-65
2024/02/02 07:56:12;;;;;;;3.28;2.97;;;5.90;99.90;;;5.94;97.66;101899.13;6188312;23;20153;-65
2024/02/02 07:58:41;;;;;;;2.75;1.55;;;5.90;99.90;;;6.09;97.27;101894.97;6187527;23;20499;-65
2024/02/02 08:01:12;;;;;;;3.55;0.95;;;6.00;99.90;;;6.11;96.27;101898.31;6187008;23;20173;-64
2024/02/02 08:03:40;;;;;;;1.10;0.68;;;6.00;99.90;;;6.08;96.62;101894.09;6187242;23;20142;-66
2024/02/02 08:06:10;;;;;;;1.25;1.05;;;6.00;99.90;;;6.16;95.95;101900.56;6186261;23;20168;-65
2024/02/02 08:08:38;;;;;;;1.85;1.00;;;6.10;99.90;;;6.04;95.89;101891.88;6186289;23;20185;-65
2024/02/02 08:11:07;;;;;;;0.90;0.55;;;6.00;99.90;;;6.14;96.28;101900.75;6186887;23;20157;-66
2024/02/02 08:13:35;;;;;;;1.33;0.82;;;6.00;99.90;;;6.09;95.39;101895.81;6186321;23;20193;-65
2024/02/02 08:16:05;;;;;;;7.78;3.42;;;6.00;99.90;;;5.97;96.08;101898.81;6186242;23;20176;-63
2024/02/02 08:18:36;;;;;;;1.15;1.05;;;6.00;99.90;;;5.98;96.38;101884.41;6185878;23;20185;-65
2024/02/02 08:21:06;;;;;;;1.27;1.17;;;5.90;99.90;;;5.89;96.93;101882.59;6186681;23;20536;-63
2024/02/02 08:23:37;;;;;;;1.08;0.90;;;5.90;99.90;;;5.96;97.03;101883.69;6186029;23;20184;-65
2024/02/02 08:26:06;;;;;;;4.70;1.33;;;5.90;99.90;;;5.98;96.74;101887.09;6186252;23;20177;-64
2024/02/02 08:28:35;;;;;;;1.48;1.23;;;5.90;99.90;;;6.02;96.53;101883.09;6185564;23;20188;-66
2024/02/02 08:31:19;;;;;;;5.43;1.85;;;5.90;99.90;;;6.10;95.78;101875.13;6185982;23;20528;-66
2024/02/02 08:33:49;;;;;;;1.30;1.20;;;6.00;99.90;;;6.21;95.43;101883.00;6185530;23;20162;-62
2024/02/02 08:36:19;;;;;;;4.20;3.80;;;6.10;99.90;;;6.08;95.39;101869.06;6185337;23;20142;-64
2024/02/02 08:38:48;;;;;;;4.05;3.45;;;6.00;99.90;;;6.24;94.32;101874.66;6185024;23;20189;-65
2024/02/02 08:41:17;;;;;;;2.15;1.35;;;6.10;99.90;;;6.45;93.85;101869.00;6158381;23;20173;-65
2024/02/02 08:43:47;;;;;;;1.75;1.20;;;6.30;99.90;;;6.61;92.51;101873.69;6185236;23;20222;-63
2024/02/02 08:46:22;;;;;;;5.97;1.42;;;6.40;99.90;;;6.92;90.83;101869.63;6185402;23;20233;-64
2024/02/02 08:48:55;;;;;;;2.47;1.55;;;6.70;99.90;;;6.94;90.45;101856.84;6185842;23;20647;-65
2024/02/02 08:51:52;;;;;;;2.42;1.77;;;6.70;99.90;;;7.09;89.43;101846.38;6186000;23;20204;-63
2024/02/02 08:54:37;;;;;;;0.90;0.80;;;6.90;99.90;;;7.18;87.90;101843.59;6156331;23;20198;-65
2024/02/02 08:57:34;;;;;;;2.03;1.80;;;7.00;99.90;;;7.16;87.70;101859.06;6156148;23;20206;-63
2024/02/02 09:00:15;;;;;;;2.28;2.13;;;7.10;99.90;;;7.07;88.62;101854.59;6155025;23;20608;-63
2024/02/02 09:03:35;;;;;;;1.63;1.52;;;7.00;99.90;;;7.09;88.58;101846.38;6154821;23;20182;-64
2024/02/02 09:06:07;;;;;;;1.90;1.60;;;7.00;99.90;;;7.14;87.71;101836.84;6155381;23;20566;-62
2024/02/02 09:08:40;;;;;;;1.45;1.35;;;7.00;99.90;;;7.19;87.27;101831.81;6156821;23;20186;-63
2024/02/02 09:11:21;;;;;;;2.83;2.38;;;7.10;99.90;;;7.31;86.43;101833.25;6156690;23;20215;-64
2024/02/02 09:14:07;;;;;;;3.10;2.63;;;7.20;99.90;;;7.06;86.90;101817.09;6156515;23;20641;-63
2024/02/02 09:16:43;;;;;;;3.70;1.63;;;7.00;99.90;;;6.80;88.02;101811.66;6156664;23;20158;-62
2024/02/02 09:19:31;;;;;;;3.33;2.53;;;6.80;99.90;;;6.77;88.28;101841.59;6156464;23;20686;-65
2024/02/02 09:22:09;;;;;;;5.40;2.15;;;6.70;99.90;;;6.84;89.20;101827.34;6157297;23;20190;-64
2024/02/02 09:24:42;;;;;;;1.88;1.50;;;6.70;99.90;;;6.93;88.69;101836.31;6156571;23;20205;-62
2024/02/02 09:27:15;;;;;;;1.60;1.50;;;6.80;99.90;;;7.05;89.40;101845.84;6156595;23;20155;-63
2024/02/02 09:29:50;;;;;;;1.80;1.33;;;6.90;99.90;;;7.09;89.36;101836.47;6157147;23;20150;-64
2024/02/02 09:32:18;;;;;;;1.60;1.23;;;6.90;99.90;;;7.02;89.71;101824.63;6130796;23;20499;-62
2024/02/02 09:34:48;;;;;;;2.55;2.28;;;6.90;99.90;;;6.73;90.08;101822.19;6156441;23;20155;-62
2024/02/02 09:37:26;;;;;;;1.73;1.42;;;6.80;99.90;;;6.81;92.38;101818.75;6155988;23;20196;-64
2024/02/02 09:39:56;;;;;;;4.45;4.07;;;6.70;99.90;;;6.96;91.82;101809.13;6155726;23;20559;-65
2024/02/02 09:43:10;;;;;;;7.40;2.05;;;6.80;99.90;;;6.88;91.31;101796.44;6156307;23;20151;-63
2024/02/02 09:46:03;;;;;;;1.35;0.95;;;6.80;99.90;;;6.96;91.95;101803.75;6066441;23;20246;-60
2024/02/02 09:48:55;;;;;;;5.97;2.65;;;6.90;99.90;;;6.69;92.21;101785.84;6153978;23;20213;-62
2024/02/02 09:51:39;;;;;;;4.13;1.95;;;6.70;99.90;;;6.83;92.31;101792.50;6156127;23;20642;-64
2024/02/02 09:54:27;;;;;;;1.63;1.35;;;6.70;99.90;;;6.97;93.18;101791.97;6156424;23;20162;-64
2024/02/02 09:57:14;;;;;;;1.83;1.33;;;6.80;99.90;;;6.95;93.38;101793.97;6155814;23;20159;-64
2024/02/02 10:00:02;;;;;;;9.10;2.10;;;6.80;99.90;;;7.01;92.21;101801.44;6156044;23;20198;-64
2024/02/02 10:03:07;;;;;;;1.55;1.45;;;6.90;99.90;;;6.88;93.18;101803.66;6156618;23;20197;-63
2024/02/02 10:05:54;;;;;;;2.03;1.92;;;6.80;99.90;;;7.07;92.58;101811.53;6156350;23;20216;-63
2024/02/02 10:08:57;;;;;;;2.17;1.83;;;6.90;99.90;;;6.94;91.08;101800.34;6155625;23;20727;-62
2024/02/02 10:11:59;;;;;;;2.60;2.40;;;6.90;99.90;;;7.13;90.97;101794.75;6156100;23;20652;-62
2024/02/02 10:15:24;;;;;;;2.88;1.90;;;7.00;99.90;;;7.14;91.11;101801.00;6156191;23;20167;-62
2024/02/02 10:18:41;;;;;;;1.02;0.85;;;7.00;99.90;;;7.09;90.44;101777.25;6128351;23;20248;-64
2024/02/02 10:21:28;;;;;;;1.30;1.20;;;7.00;99.90;;;7.02;90.82;101760.03;6066526;23;20490;-65
2024/02/02 10:24:27;;;;;;;2.15;1.20;;;6.90;99.90;;;7.29;89.75;101757.19;6153408;23;20565;-60
2024/02/02 10:27:22;;;;;;;1.75;1.05;;;7.10;99.90;;;7.33;89.23;101737.00;6156912;23;20161;-64
2024/02/02 10:30:09;;;;;;;10.07;4.00;;;7.10;99.90;;;7.50;87.15;101737.09;6130158;23;20508;-64
2024/02/02 10:33:08;;;;;;;0.90;0.73;;;7.40;99.90;;;7.58;86.94;101735.28;6156322;23;20158;-64
2024/02/02 10:35:52;;;;;;;3.80;2.42;;;7.40;99.90;;;7.58;86.64;101745.19;6156660;23;20225;-61
2024/02/02 10:38:35;;;;;;;1.85;1.30;;;7.40;99.90;;;7.41;86.82;101742.44;6156520;23;20189;-60
2024/02/02 10:41:20;;;;;;;2.72;1.90;;;7.30;99.90;;;7.58;85.57;101742.50;6130008;23;20169;-61
2024/02/02 10:44:08;;;;;;;2.45;1.60;;;7.40;99.90;;;7.61;85.32;101739.47;6130007;23;20166;-63
2024/02/02 10:46:50;;;;;;;2.97;2.35;;;7.40;99.90;;;7.93;84.29;101733.38;6156149;23;20185;-65